Block Number:

FAA Identifier: KMEV

AWOS Phone: 775-782-6264

AWOS Radio Freq: 119.325

Current Conditions

Updated: 9:52 AM GMT on 18 Nov 2017

  • Wind Speed (2min):
    3 Knots
  • Wind Direction (2min):
    090 Degrees
  • Temperature (10min):
    -5 Celsius
  • Dew Point (10min):
    -7 Celsius
  • Humidity:
    92 Percent
  • Altimeter:
    30.32 inHG
  • Density Altitude:
  • Visibility:
    10 Miles
  • Clouds:
    CLR
METAR: METAR KMEV 180950Z AUTO 10003KT 10SM CLR M05/M07 A3032 RMK AO2